createdAt,value
2022-08-07T00:02:41.500Z,100352.22
2022-08-07T00:06:51.532Z,100353.94
2022-08-07T00:10:57.559Z,100363.94
2022-08-07T00:15:01.830Z,100353.22
2022-08-07T00:19:05.662Z,100358.63
2022-08-07T00:23:09.008Z,100358.63
2022-08-07T00:27:13.593Z,100350.63
2022-08-07T00:31:19.034Z,100356.09
2022-08-07T00:35:23.032Z,100356.19
2022-08-07T00:39:26.538Z,100350.88
2022-08-07T00:44:01.617Z,100354.50
2022-08-07T00:48:09.587Z,100355.50
2022-08-07T00:52:14.509Z,100352.94
2022-08-07T00:56:20.900Z,100350.28
2022-08-07T01:00:26.119Z,100364.47
2022-08-07T01:04:30.325Z,100358.34
2022-08-07T01:08:36.072Z,100357.53
2022-08-07T01:12:53.949Z,100359.38
2022-08-07T01:17:04.186Z,100347.94
2022-08-07T01:21:22.855Z,100345.28
2022-08-07T01:25:53.830Z,100341.75
2022-08-07T01:29:56.029Z,100341.84
2022-08-07T01:34:00.188Z,100347.25
2022-08-07T01:38:10.900Z,100344.72
2022-08-07T01:42:38.748Z,100340.34
2022-08-07T01:46:41.856Z,100342.94
2022-08-07T01:50:50.389Z,100348.38
2022-08-07T01:54:58.994Z,100357.34
2022-08-07T01:59:09.167Z,100354.69
2022-08-07T02:03:31.986Z,100355.72
2022-08-07T02:07:51.789Z,100341.63
2022-08-07T02:12:17.697Z,100351.41
2022-08-07T02:16:28.726Z,100338.91
2022-08-07T02:20:38.158Z,100338.91
2022-08-07T02:24:46.605Z,100336.34
2022-08-07T02:28:54.408Z,100336.38
2022-08-07T02:33:09.282Z,100352.56
2022-08-07T02:37:16.677Z,100343.63
2022-08-07T02:41:21.690Z,100340.91
2022-08-07T02:46:00.180Z,100336.47
2022-08-07T02:49:58.806Z,100333.78
2022-08-07T02:54:10.617Z,100328.63
2022-08-07T02:58:21.999Z,100331.34
2022-08-07T03:02:33.840Z,100327.78
2022-08-07T03:06:38.969Z,100324.19
2022-08-07T03:10:46.730Z,100312.66
2022-08-07T03:14:56.344Z,100312.66
2022-08-07T03:19:02.184Z,100315.38
2022-08-07T03:23:18.911Z,100314.53
2022-08-07T03:27:30.120Z,100303.97
2022-08-07T03:31:43.443Z,100296.88
2022-08-07T03:35:52.553Z,100289.72
2022-08-07T03:40:15.309Z,100291.44
2022-08-07T03:44:31.911Z,100296.00
2022-08-07T03:48:45.557Z,100303.09
2022-08-07T03:53:07.508Z,100302.16
2022-08-07T03:58:33.840Z,100296.88
2022-08-07T04:01:45.221Z,100304.03
2022-08-07T04:05:50.689Z,100303.13
2022-08-07T04:09:59.687Z,100312.00
2022-08-07T04:14:10.159Z,100310.28
2022-08-07T04:18:59.573Z,100320.06
2022-08-07T04:23:01.301Z,100316.53
2022-08-07T04:27:20.757Z,100329.00
2022-08-07T04:32:02.160Z,100316.56
2022-08-07T04:35:56.148Z,100320.06
2022-08-07T04:40:05.211Z,100327.16
2022-08-07T04:44:18.243Z,100323.53
2022-08-07T04:48:31.535Z,100335.91
2022-08-07T04:52:51.113Z,100325.19
2022-08-07T04:58:16.823Z,100324.25
2022-08-07T05:01:41.648Z,100327.88
2022-08-07T05:05:57.145Z,100330.53
2022-08-07T05:10:07.813Z,100321.75
2022-08-07T05:14:52.898Z,100327.09
2022-08-07T05:18:54.060Z,100319.06
2022-08-07T05:23:02.772Z,100335.13
2022-08-07T05:27:14.461Z,100334.19
2022-08-07T05:31:38.513Z,100334.09
2022-08-07T05:35:50.737Z,100337.56
2022-08-07T05:40:14.188Z,100347.31
2022-08-07T05:44:29.342Z,100342.84
2022-08-07T05:48:36.600Z,100334.81
2022-08-07T05:53:01.565Z,100355.22
2022-08-07T05:57:07.314Z,100347.16
2022-08-07T06:01:13.320Z,100339.13
2022-08-07T06:05:28.137Z,100340.91
2022-08-07T06:10:03.774Z,100339.00
2022-08-07T06:14:12.924Z,100348.66
2022-08-07T06:18:28.033Z,100352.06
2022-08-07T06:22:39.044Z,100344.00
2022-08-07T06:27:07.948Z,100350.06
2022-08-07T06:31:11.918Z,100354.44
2022-08-07T06:35:18.090Z,100344.72
2022-08-07T06:40:16.246Z,100342.88
2022-08-07T06:43:59.417Z,100343.59
2022-08-07T06:48:09.405Z,100351.31
2022-08-07T06:52:31.727Z,100353.94
2022-08-07T06:56:50.715Z,100355.50
2022-08-07T07:01:01.285Z,100365.97
2022-08-07T07:05:12.602Z,100362.09
2022-08-07T07:09:24.260Z,100355.22
2022-08-07T07:13:43.614Z,100344.84
2022-08-07T07:18:11.203Z,100335.31
2022-08-07T07:22:36.117Z,100348.41
2022-08-07T07:26:49.672Z,100341.66
2022-08-07T07:31:01.500Z,100337.69
2022-08-07T07:35:11.315Z,100337.25
2022-08-07T07:39:16.494Z,100330.06
2022-08-07T07:43:27.700Z,100338.22
2022-08-07T07:47:51.961Z,100339.94
2022-08-07T07:51:59.884Z,100327.25
2022-08-07T07:56:04.250Z,100330.75
2022-08-07T08:00:09.523Z,100326.19
2022-08-07T08:04:18.478Z,100333.28
2022-08-07T08:08:35.037Z,100329.63
2022-08-07T08:12:52.279Z,100333.38
2022-08-07T08:17:56.389Z,100328.19
2022-08-07T08:22:02.587Z,100327.97
2022-08-07T08:26:23.395Z,100327.75
2022-08-07T08:30:30.219Z,100331.72
2022-08-07T08:34:36.762Z,100328.13
2022-08-07T08:38:43.160Z,100325.22
2022-08-07T08:42:55.823Z,100327.56
2022-08-07T08:47:09.815Z,100323.78
2022-08-07T08:51:49.552Z,100324.47
2022-08-07T08:55:59.243Z,100327.66
2022-08-07T09:00:09.054Z,100319.41
2022-08-07T09:04:25.953Z,100317.47
2022-08-07T09:08:42.144Z,100316.81
2022-08-07T09:12:58.303Z,100305.84
2022-08-07T09:17:19.121Z,100310.94
2022-08-07T09:22:09.747Z,100309.06
2022-08-07T09:26:12.636Z,100302.50
2022-08-07T09:30:25.447Z,100297.84
2022-08-07T09:34:53.909Z,100293.22
2022-08-07T09:39:18.260Z,100292.06
2022-08-07T09:44:06.247Z,100275.88
2022-08-07T09:48:25.151Z,100281.59
2022-08-07T09:52:41.903Z,100285.38
2022-08-07T09:57:27.992Z,100283.91
2022-08-07T10:01:51.692Z,100281.88
2022-08-07T10:06:24.526Z,100264.41
2022-08-07T10:11:16.402Z,100266.59
2022-08-07T10:15:44.528Z,100256.91
2022-08-07T10:20:02.061Z,100243.75
2022-08-07T10:24:38.142Z,100252.06
2022-08-07T10:29:00.019Z,100236.91
2022-08-07T10:34:04.999Z,100246.94
2022-08-07T10:38:21.245Z,100242.97
2022-08-07T10:42:36.383Z,100229.06
2022-08-07T10:46:48.883Z,100227.06
2022-08-07T10:50:57.302Z,100213.25
2022-08-07T10:55:26.619Z,100217.78
2022-08-07T10:59:52.972Z,100220.06
2022-08-07T11:04:17.030Z,100205.25
2022-08-07T11:08:40.830Z,100205.28
2022-08-07T11:12:49.725Z,100198.69
2022-08-07T11:17:12.214Z,100196.06
2022-08-07T11:21:32.092Z,100191.09
2022-08-07T11:25:48.198Z,100188.47
2022-08-07T11:30:18.709Z,100184.56
2022-08-07T11:34:32.435Z,100178.03
2022-08-07T11:38:50.629Z,100175.00
2022-08-07T11:43:00.874Z,100167.38
2022-08-07T11:47:19.032Z,100167.38
2022-08-07T11:51:44.692Z,100162.31
2022-08-07T11:56:25.335Z,100161.31
2022-08-07T12:00:39.301Z,100166.69
2022-08-07T12:05:00.981Z,100155.00
2022-08-07T12:09:16.476Z,100156.06
2022-08-07T12:13:37.102Z,100146.66
2022-08-07T12:17:59.432Z,100153.28
2022-08-07T12:22:37.310Z,100144.56
2022-08-07T12:26:46.238Z,100146.47
2022-08-07T12:30:57.305Z,100142.81
2022-08-07T12:35:05.599Z,100148.03
2022-08-07T12:39:44.830Z,100139.16
2022-08-07T12:44:02.703Z,100135.31
2022-08-07T12:48:13.187Z,100138.47
2022-08-07T12:52:46.106Z,100141.09
2022-08-07T12:56:54.882Z,100132.31
2022-08-07T13:01:08.057Z,100136.72
2022-08-07T13:06:03.742Z,100131.16
2022-08-07T13:10:37.627Z,100128.84
2022-08-07T13:14:51.152Z,100126.47
2022-08-07T13:19:11.473Z,100131.88
2022-08-07T13:24:00.788Z,100126.91
2022-08-07T13:28:11.704Z,100126.59
2022-08-07T13:32:32.691Z,100124.22
2022-08-07T13:36:46.315Z,100104.00
2022-08-07T13:41:02.445Z,100101.47
2022-08-07T13:45:20.851Z,100096.38
2022-08-07T13:50:34.507Z,100090.88
2022-08-07T13:54:03.626Z,100080.69
2022-08-07T13:58:31.430Z,100079.56
2022-08-07T14:02:49.154Z,100077.31
2022-08-07T14:06:55.797Z,100072.59
2022-08-07T14:11:15.470Z,100068.16
2022-08-07T14:15:31.752Z,100066.59
2022-08-07T14:20:39.814Z,100060.44
2022-08-07T14:24:27.655Z,100063.50
2022-08-07T14:28:57.479Z,100054.63
2022-08-07T14:33:04.663Z,100054.44
2022-08-07T14:37:16.667Z,100051.38
2022-08-07T14:41:34.108Z,100047.50
2022-08-07T14:50:20.634Z,100031.72
2022-08-07T14:54:31.324Z,100036.19
2022-08-07T14:58:42.631Z,100032.41
2022-08-07T15:02:47.494Z,100031.91
2022-08-07T15:07:03.227Z,100037.41
2022-08-07T15:11:53.317Z,100032.06
2022-08-07T15:16:01.064Z,100030.53
2022-08-07T15:25:13.686Z,100031.34
2022-08-07T15:38:17.443Z,100035.38
2022-08-07T15:42:51.891Z,100040.25
2022-08-07T15:47:03.565Z,100030.28
2022-08-07T15:51:16.941Z,100036.28
2022-08-07T15:55:23.220Z,100039.13
2022-08-07T15:59:47.874Z,100035.84
2022-08-07T16:03:57.312Z,100036.78
2022-08-07T16:08:30.207Z,100041.41
2022-08-07T16:12:39.110Z,100035.41
2022-08-07T16:17:15.416Z,100045.59
2022-08-07T16:22:01.322Z,100047.00
2022-08-07T16:25:56.704Z,100059.00
2022-08-07T16:30:30.995Z,100049.53
2022-08-07T16:34:48.193Z,100044.47
2022-08-07T16:39:13.273Z,100045.84
2022-08-07T16:44:03.929Z,100056.25
2022-08-07T16:48:58.430Z,100054.50
2022-08-07T16:54:02.532Z,100047.34
2022-08-07T16:58:03.691Z,100044.03
2022-08-07T17:02:52.476Z,100040.72
2022-08-07T17:07:02.894Z,100046.13
2022-08-07T17:11:14.273Z,100047.25
2022-08-07T17:15:21.962Z,100053.78
2022-08-07T17:20:01.548Z,100046.78
2022-08-07T17:24:23.622Z,100048.69
2022-08-07T17:28:38.244Z,100051.75
2022-08-07T17:32:53.725Z,100049.97
2022-08-07T17:37:09.818Z,100049.28
2022-08-07T17:42:04.580Z,100050.50
2022-08-07T17:45:55.575Z,100057.16
2022-08-07T17:50:01.436Z,100058.59
2022-08-07T17:54:14.958Z,100068.00
2022-08-07T17:58:46.342Z,100070.75
2022-08-07T18:02:56.730Z,100080.41
2022-08-07T18:07:20.095Z,100076.91
2022-08-07T18:12:07.938Z,100087.28
2022-08-07T18:16:04.708Z,100089.44
2022-08-07T18:21:03.433Z,100095.50
2022-08-07T18:24:43.259Z,100089.97
2022-08-07T18:29:03.925Z,100087.06
2022-08-07T18:33:32.613Z,100090.59
2022-08-07T18:38:55.183Z,100098.34
2022-08-07T18:42:28.806Z,100108.47
2022-08-07T18:46:43.110Z,100110.63
2022-08-07T18:51:11.637Z,100116.53
2022-08-07T18:55:41.845Z,100120.31
2022-08-07T19:00:32.877Z,100119.44
2022-08-07T19:04:57.668Z,100130.25
2022-08-07T19:09:55.388Z,100125.16
2022-08-07T19:13:56.467Z,100136.28
2022-08-07T19:18:12.991Z,100136.59
2022-08-07T19:22:31.334Z,100136.81
2022-08-07T19:27:09.121Z,100144.22
2022-08-07T19:31:43.626Z,100155.13
2022-08-07T19:35:38.499Z,100147.34
2022-08-07T19:39:57.590Z,100153.75
2022-08-07T19:44:21.275Z,100162.94
2022-08-07T19:48:42.130Z,100160.69
2022-08-07T19:52:58.353Z,100164.78
2022-08-07T19:58:02.300Z,100170.63
2022-08-07T20:01:56.246Z,100175.41
2022-08-07T20:06:00.558Z,100172.22
2022-08-07T20:10:35.702Z,100176.81
2022-08-07T20:14:36.631Z,100180.41
2022-08-07T20:18:58.771Z,100179.59
2022-08-07T20:23:23.172Z,100175.97
2022-08-07T20:27:46.247Z,100165.38
2022-08-07T20:31:50.849Z,100162.81
2022-08-07T20:36:03.408Z,100167.31
2022-08-07T20:40:32.165Z,100164.66
2022-08-07T20:44:38.699Z,100164.78
2022-08-07T20:49:54.636Z,100157.91
2022-08-07T20:53:13.491Z,100163.25
2022-08-07T20:57:22.119Z,100172.13
2022-08-07T21:01:29.710Z,100171.25
2022-08-07T21:05:56.354Z,100179.34
2022-08-07T21:10:03.235Z,100168.63
2022-08-07T21:14:31.640Z,100178.53
2022-08-07T21:18:41.011Z,100190.16
2022-08-07T21:22:53.483Z,100195.59
2022-08-07T21:27:02.044Z,100193.91
2022-08-07T21:31:16.247Z,100191.34
2022-08-07T21:36:00.207Z,100192.38
2022-08-07T21:40:03.682Z,100184.50
2022-08-07T21:44:28.436Z,100184.66
2022-08-07T21:48:43.859Z,100185.69
2022-08-07T21:53:07.776Z,100185.91
2022-08-07T21:57:39.652Z,100191.50
2022-08-07T22:02:11.024Z,100191.59
2022-08-07T22:06:31.005Z,100182.84
2022-08-07T22:10:35.744Z,100182.94
2022-08-07T22:15:00.115Z,100183.03
2022-08-07T22:19:09.564Z,100190.31
2022-08-07T22:23:23.615Z,100184.28
2022-08-07T22:27:51.220Z,100181.72
2022-08-07T22:32:06.397Z,100166.69
2022-08-07T22:36:18.592Z,100169.47
2022-08-07T22:40:30.785Z,100167.59
2022-08-07T22:44:36.884Z,100180.00
2022-08-07T22:49:07.761Z,100180.75
2022-08-07T22:54:08.089Z,100180.72
2022-08-07T22:58:28.106Z,100179.75
2022-08-07T23:02:38.575Z,100177.97
2022-08-07T23:06:54.921Z,100178.94
2022-08-07T23:11:17.167Z,100178.03
2022-08-07T23:16:06.726Z,100178.09
2022-08-07T23:20:15.051Z,100172.72
2022-08-07T23:24:30.027Z,100162.97
2022-08-07T23:28:54.462Z,100161.16
2022-08-07T23:34:20.671Z,100159.47
2022-08-07T23:38:01.685Z,100159.47
2022-08-07T23:42:21.877Z,100159.34
2022-08-07T23:46:57.661Z,100158.56
2022-08-07T23:52:58.300Z,100155.91
2022-08-07T23:55:53.168Z,100168.38
